sensor_id;sensor_type;location;lat;lon;timestamp;P1;durP1;ratioP1;P2;durP2;ratioP2
23712;SDS011;12035;49.978;8.298;2023-03-31T00:09:12;3.75;;;0.90;;
23712;SDS011;12035;49.978;8.298;2023-03-31T00:14:12;4.90;;;1.08;;
23712;SDS011;12035;49.978;8.298;2023-03-31T00:19:12;6.57;;;1.42;;
23712;SDS011;12035;49.978;8.298;2023-03-31T00:24:14;5.40;;;1.00;;
23712;SDS011;12035;49.978;8.298;2023-03-31T00:29:12;3.75;;;0.90;;
23712;SDS011;12035;49.978;8.298;2023-03-31T00:34:11;3.50;;;0.77;;
23712;SDS011;12035;49.978;8.298;2023-03-31T00:39:10;5.15;;;1.10;;
23712;SDS011;12035;49.978;8.298;2023-03-31T00:44:09;2.13;;;0.60;;
23712;SDS011;12035;49.978;8.298;2023-03-31T00:49:11;4.28;;;1.10;;
23712;SDS011;12035;49.978;8.298;2023-03-31T00:54:17;4.35;;;1.08;;
23712;SDS011;12035;49.978;8.298;2023-03-31T00:59:15;3.40;;;0.98;;
23712;SDS011;12035;49.978;8.298;2023-03-31T01:04:13;4.18;;;1.02;;
23712;SDS011;12035;49.978;8.298;2023-03-31T01:09:11;6.50;;;1.40;;
23712;SDS011;12035;49.978;8.298;2023-03-31T01:14:12;3.45;;;0.77;;
23712;SDS011;12035;49.978;8.298;2023-03-31T01:19:11;4.10;;;1.10;;
23712;SDS011;12035;49.978;8.298;2023-03-31T01:30:06;2.65;;;0.80;;
23712;SDS011;12035;49.978;8.298;2023-03-31T01:35:36;4.05;;;0.82;;
23712;SDS011;12035;49.978;8.298;2023-03-31T01:41:13;2.92;;;0.90;;
23712;SDS011;12035;49.978;8.298;2023-03-31T01:46:19;4.50;;;1.20;;
23712;SDS011;12035;49.978;8.298;2023-03-31T01:51:25;4.30;;;1.05;;
23712;SDS011;12035;49.978;8.298;2023-03-31T01:56:31;4.63;;;1.10;;
23712;SDS011;12035;49.978;8.298;2023-03-31T02:01:36;5.30;;;1.10;;
23712;SDS011;12035;49.978;8.298;2023-03-31T02:06:39;5.85;;;1.08;;
23712;SDS011;12035;49.978;8.298;2023-03-31T02:11:41;5.78;;;1.10;;
23712;SDS011;12035;49.978;8.298;2023-03-31T02:16:41;4.38;;;0.98;;
23712;SDS011;12035;49.978;8.298;2023-03-31T02:21:41;4.10;;;1.00;;
23712;SDS011;12035;49.978;8.298;2023-03-31T02:26:40;8.00;;;1.55;;
23712;SDS011;12035;49.978;8.298;2023-03-31T02:31:45;5.88;;;1.15;;
23712;SDS011;12035;49.978;8.298;2023-03-31T02:36:48;4.32;;;1.20;;
23712;SDS011;12035;49.978;8.298;2023-03-31T02:41:47;5.65;;;1.20;;
23712;SDS011;12035;49.978;8.298;2023-03-31T02:46:44;5.55;;;1.52;;
23712;SDS011;12035;49.978;8.298;2023-03-31T02:57:35;3.10;;;1.00;;
23712;SDS011;12035;49.978;8.298;2023-03-31T03:03:08;5.13;;;0.93;;
23712;SDS011;12035;49.978;8.298;2023-03-31T03:08:24;7.22;;;1.15;;
23712;SDS011;12035;49.978;8.298;2023-03-31T03:13:35;6.30;;;1.15;;
23712;SDS011;12035;49.978;8.298;2023-03-31T03:18:41;7.35;;;1.50;;
23712;SDS011;12035;49.978;8.298;2023-03-31T03:23:38;4.07;;;1.05;;
23712;SDS011;12035;49.978;8.298;2023-03-31T03:28:37;5.20;;;1.13;;
23712;SDS011;12035;49.978;8.298;2023-03-31T03:33:34;7.22;;;1.13;;
23712;SDS011;12035;49.978;8.298;2023-03-31T03:38:31;7.30;;;1.20;;
23712;SDS011;12035;49.978;8.298;2023-03-31T03:43:28;5.90;;;0.88;;
23712;SDS011;12035;49.978;8.298;2023-03-31T03:48:27;2.63;;;0.88;;
23712;SDS011;12035;49.978;8.298;2023-03-31T03:53:24;5.20;;;0.98;;
23712;SDS011;12035;49.978;8.298;2023-03-31T03:58:21;5.03;;;1.08;;
23712;SDS011;12035;49.978;8.298;2023-03-31T04:03:18;5.88;;;1.10;;
23712;SDS011;12035;49.978;8.298;2023-03-31T04:08:17;6.32;;;1.20;;
23712;SDS011;12035;49.978;8.298;2023-03-31T04:13:15;4.35;;;1.30;;
23712;SDS011;12035;49.978;8.298;2023-03-31T04:18:13;2.65;;;0.85;;
23712;SDS011;12035;49.978;8.298;2023-03-31T04:23:18;4.93;;;0.90;;
23712;SDS011;12035;49.978;8.298;2023-03-31T04:28:17;4.38;;;1.10;;
23712;SDS011;12035;49.978;8.298;2023-03-31T04:33:14;5.68;;;1.20;;
23712;SDS011;12035;49.978;8.298;2023-03-31T04:38:11;4.63;;;1.00;;
23712;SDS011;12035;49.978;8.298;2023-03-31T04:43:14;6.03;;;1.20;;
23712;SDS011;12035;49.978;8.298;2023-03-31T04:48:12;6.63;;;1.25;;
23712;SDS011;12035;49.978;8.298;2023-03-31T04:53:09;7.05;;;1.30;;
23712;SDS011;12035;49.978;8.298;2023-03-31T04:58:06;3.20;;;1.00;;
23712;SDS011;12035;49.978;8.298;2023-03-31T05:08:02;4.10;;;0.93;;
23712;SDS011;12035;49.978;8.298;2023-03-31T05:13:01;5.38;;;0.80;;
23712;SDS011;12035;49.978;8.298;2023-03-31T05:17:58;6.55;;;1.00;;
23712;SDS011;12035;49.978;8.298;2023-03-31T05:22:56;4.55;;;1.20;;
23712;SDS011;12035;49.978;8.298;2023-03-31T05:27:54;4.60;;;0.77;;
23712;SDS011;12035;49.978;8.298;2023-03-31T05:32:51;5.82;;;1.08;;
23712;SDS011;12035;49.978;8.298;2023-03-31T05:37:48;5.05;;;1.00;;
23712;SDS011;12035;49.978;8.298;2023-03-31T05:42:47;3.00;;;1.10;;
23712;SDS011;12035;49.978;8.298;2023-03-31T05:47:44;4.85;;;1.30;;
23712;SDS011;12035;49.978;8.298;2023-03-31T05:52:41;6.28;;;0.90;;
23712;SDS011;12035;49.978;8.298;2023-03-31T05:57:39;5.60;;;1.42;;
23712;SDS011;12035;49.978;8.298;2023-03-31T06:02:38;3.60;;;1.00;;
23712;SDS011;12035;49.978;8.298;2023-03-31T06:07:35;4.60;;;1.00;;
23712;SDS011;12035;49.978;8.298;2023-03-31T06:12:32;4.85;;;1.20;;
23712;SDS011;12035;49.978;8.298;2023-03-31T06:17:29;5.30;;;1.50;;
23712;SDS011;12035;49.978;8.298;2023-03-31T06:22:28;5.80;;;1.40;;
23712;SDS011;12035;49.978;8.298;2023-03-31T06:27:25;6.25;;;1.80;;
23712;SDS011;12035;49.978;8.298;2023-03-31T06:32:22;6.32;;;1.50;;
23712;SDS011;12035;49.978;8.298;2023-03-31T06:37:19;5.75;;;1.38;;
23712;SDS011;12035;49.978;8.298;2023-03-31T06:42:18;5.78;;;2.10;;
23712;SDS011;12035;49.978;8.298;2023-03-31T06:47:15;7.25;;;1.70;;
23712;SDS011;12035;49.978;8.298;2023-03-31T06:52:12;3.75;;;1.17;;
23712;SDS011;12035;49.978;8.298;2023-03-31T06:57:09;5.18;;;1.50;;
23712;SDS011;12035;49.978;8.298;2023-03-31T07:02:08;8.73;;;2.33;;
23712;SDS011;12035;49.978;8.298;2023-03-31T07:07:05;6.28;;;1.90;;
23712;SDS011;12035;49.978;8.298;2023-03-31T07:12:03;6.32;;;2.50;;
23712;SDS011;12035;49.978;8.298;2023-03-31T07:17:00;7.75;;;2.40;;
23712;SDS011;12035;49.978;8.298;2023-03-31T07:21:58;6.47;;;1.92;;
23712;SDS011;12035;49.978;8.298;2023-03-31T07:26:55;5.65;;;1.60;;
23712;SDS011;12035;49.978;8.298;2023-03-31T07:36:49;3.87;;;1.40;;
23712;SDS011;12035;49.978;8.298;2023-03-31T07:41:48;7.65;;;1.45;;
23712;SDS011;12035;49.978;8.298;2023-03-31T07:46:45;6.55;;;1.50;;
23712;SDS011;12035;49.978;8.298;2023-03-31T07:51:42;2.80;;;0.90;;
23712;SDS011;12035;49.978;8.298;2023-03-31T07:56:39;3.33;;;1.00;;
23712;SDS011;12035;49.978;8.298;2023-03-31T08:01:38;3.03;;;0.88;;
23712;SDS011;12035;49.978;8.298;2023-03-31T08:06:35;3.10;;;0.93;;
23712;SDS011;12035;49.978;8.298;2023-03-31T08:11:32;2.75;;;0.70;;
23712;SDS011;12035;49.978;8.298;2023-03-31T08:16:29;3.30;;;0.90;;
23712;SDS011;12035;49.978;8.298;2023-03-31T08:21:28;2.28;;;0.88;;
23712;SDS011;12035;49.978;8.298;2023-03-31T08:26:26;4.60;;;1.25;;
23712;SDS011;12035;49.978;8.298;2023-03-31T08:31:23;4.28;;;1.38;;
23712;SDS011;12035;49.978;8.298;2023-03-31T08:36:23;3.78;;;1.20;;
23712;SDS011;12035;49.978;8.298;2023-03-31T08:41:32;4.15;;;1.40;;
23712;SDS011;12035;49.978;8.298;2023-03-31T08:46:37;3.23;;;1.20;;
23712;SDS011;12035;49.978;8.298;2023-03-31T08:51:37;4.20;;;1.40;;
23712;SDS011;12035;49.978;8.298;2023-03-31T08:56:40;6.22;;;1.63;;
23712;SDS011;12035;49.978;8.298;2023-03-31T09:01:41;3.38;;;1.17;;
23712;SDS011;12035;49.978;8.298;2023-03-31T09:06:46;4.97;;;1.30;;
23712;SDS011;12035;49.978;8.298;2023-03-31T09:11:52;2.90;;;1.42;;
23712;SDS011;12035;49.978;8.298;2023-03-31T09:16:53;4.85;;;1.30;;
23712;SDS011;12035;49.978;8.298;2023-03-31T09:22:03;7.82;;;1.58;;
23712;SDS011;12035;49.978;8.298;2023-03-31T09:27:09;4.55;;;1.45;;
23712;SDS011;12035;49.978;8.298;2023-03-31T09:32:11;7.93;;;1.35;;
23712;SDS011;12035;49.978;8.298;2023-03-31T09:37:11;5.47;;;1.40;;
23712;SDS011;12035;49.978;8.298;2023-03-31T09:42:13;4.78;;;1.67;;
23712;SDS011;12035;49.978;8.298;2023-03-31T09:47:14;9.50;;;2.22;;
23712;SDS011;12035;49.978;8.298;2023-03-31T09:52:27;9.05;;;1.83;;
23712;SDS011;12035;49.978;8.298;2023-03-31T09:57:29;10.45;;;2.30;;
23712;SDS011;12035;49.978;8.298;2023-03-31T10:02:33;7.20;;;1.90;;
23712;SDS011;12035;49.978;8.298;2023-03-31T10:07:32;8.45;;;1.98;;
23712;SDS011;12035;49.978;8.298;2023-03-31T10:12:31;9.27;;;1.90;;
23712;SDS011;12035;49.978;8.298;2023-03-31T10:17:28;6.22;;;1.40;;
23712;SDS011;12035;49.978;8.298;2023-03-31T10:22:29;2.42;;;0.70;;
23712;SDS011;12035;49.978;8.298;2023-03-31T10:27:27;1.60;;;0.40;;
23712;SDS011;12035;49.978;8.298;2023-03-31T10:32:29;3.22;;;0.55;;
23712;SDS011;12035;49.978;8.298;2023-03-31T10:37:27;2.55;;;0.60;;
23712;SDS011;12035;49.978;8.298;2023-03-31T10:42:26;5.40;;;1.33;;
23712;SDS011;12035;49.978;8.298;2023-03-31T10:47:24;3.80;;;0.95;;
23712;SDS011;12035;49.978;8.298;2023-03-31T10:52:28;1.92;;;0.50;;
23712;SDS011;12035;49.978;8.298;2023-03-31T10:57:28;4.90;;;0.60;;
23712;SDS011;12035;49.978;8.298;2023-03-31T11:08:14;4.35;;;1.20;;
23712;SDS011;12035;49.978;8.298;2023-03-31T11:13:24;7.10;;;1.40;;
23712;SDS011;12035;49.978;8.298;2023-03-31T11:18:37;7.88;;;1.90;;
23712;SDS011;12035;49.978;8.298;2023-03-31T11:24:00;8.40;;;1.60;;
23712;SDS011;12035;49.978;8.298;2023-03-31T11:29:19;12.55;;;1.70;;
23712;SDS011;12035;49.978;8.298;2023-03-31T11:34:39;9.20;;;2.00;;
23712;SDS011;12035;49.978;8.298;2023-03-31T11:39:56;9.27;;;2.28;;
23712;SDS011;12035;49.978;8.298;2023-03-31T11:45:11;10.02;;;2.17;;
23712;SDS011;12035;49.978;8.298;2023-03-31T11:50:14;9.50;;;1.85;;
23712;SDS011;12035;49.978;8.298;2023-03-31T11:55:16;9.02;;;1.83;;
23712;SDS011;12035;49.978;8.298;2023-03-31T12:00:16;9.75;;;1.90;;
23712;SDS011;12035;49.978;8.298;2023-03-31T12:05:18;8.32;;;2.33;;
23712;SDS011;12035;49.978;8.298;2023-03-31T12:10:18;6.60;;;1.67;;
23712;SDS011;12035;49.978;8.298;2023-03-31T12:15:18;9.73;;;1.83;;
23712;SDS011;12035;49.978;8.298;2023-03-31T12:20:22;4.97;;;1.25;;
23712;SDS011;12035;49.978;8.298;2023-03-31T12:25:25;3.83;;;1.13;;
23712;SDS011;12035;49.978;8.298;2023-03-31T12:30:36;4.20;;;1.20;;
23712;SDS011;12035;49.978;8.298;2023-03-31T12:35:40;6.13;;;1.05;;
23712;SDS011;12035;49.978;8.298;2023-03-31T12:40:57;6.97;;;1.52;;
23712;SDS011;12035;49.978;8.298;2023-03-31T12:46:08;6.20;;;1.40;;
23712;SDS011;12035;49.978;8.298;2023-03-31T12:51:29;8.43;;;1.40;;
23712;SDS011;12035;49.978;8.298;2023-03-31T13:02:17;6.68;;;1.63;;
23712;SDS011;12035;49.978;8.298;2023-03-31T13:07:34;6.25;;;1.67;;
23712;SDS011;12035;49.978;8.298;2023-03-31T13:12:36;4.97;;;0.70;;
23712;SDS011;12035;49.978;8.298;2023-03-31T13:17:34;3.38;;;0.80;;
23712;SDS011;12035;49.978;8.298;2023-03-31T13:22:32;4.47;;;0.85;;
23712;SDS011;12035;49.978;8.298;2023-03-31T13:27:33;0.65;;;0.20;;
23712;SDS011;12035;49.978;8.298;2023-03-31T13:32:30;0.75;;;0.30;;
23712;SDS011;12035;49.978;8.298;2023-03-31T13:37:29;0.68;;;0.20;;
23712;SDS011;12035;49.978;8.298;2023-03-31T13:48:22;2.92;;;0.50;;
23712;SDS011;12035;49.978;8.298;2023-03-31T13:53:38;1.45;;;0.50;;
23712;SDS011;12035;49.978;8.298;2023-03-31T13:59:14;2.03;;;0.70;;
23712;SDS011;12035;49.978;8.298;2023-03-31T14:04:36;3.50;;;0.98;;
23712;SDS011;12035;49.978;8.298;2023-03-31T14:09:57;2.55;;;0.57;;
23712;SDS011;12035;49.978;8.298;2023-03-31T14:14:54;5.60;;;0.80;;
23712;SDS011;12035;49.978;8.298;2023-03-31T14:19:55;3.50;;;0.85;;
23712;SDS011;12035;49.978;8.298;2023-03-31T14:25:20;6.72;;;1.15;;
23712;SDS011;12035;49.978;8.298;2023-03-31T14:30:34;3.25;;;0.65;;
23712;SDS011;12035;49.978;8.298;2023-03-31T14:35:41;2.97;;;0.88;;
23712;SDS011;12035;49.978;8.298;2023-03-31T14:40:49;4.97;;;0.87;;
23712;SDS011;12035;49.978;8.298;2023-03-31T14:45:56;4.35;;;0.98;;
23712;SDS011;12035;49.978;8.298;2023-03-31T14:50:55;5.35;;;1.33;;
23712;SDS011;12035;49.978;8.298;2023-03-31T14:56:00;5.13;;;1.30;;
23712;SDS011;12035;49.978;8.298;2023-03-31T15:01:05;3.30;;;0.70;;
23712;SDS011;12035;49.978;8.298;2023-03-31T15:06:04;3.47;;;0.70;;
23712;SDS011;12035;49.978;8.298;2023-03-31T15:11:04;1.92;;;0.60;;
23712;SDS011;12035;49.978;8.298;2023-03-31T15:16:18;4.20;;;0.82;;
23712;SDS011;12035;49.978;8.298;2023-03-31T15:21:26;2.70;;;0.50;;
23712;SDS011;12035;49.978;8.298;2023-03-31T15:26:29;3.83;;;1.00;;
23712;SDS011;12035;49.978;8.298;2023-03-31T15:31:29;2.65;;;0.77;;
23712;SDS011;12035;49.978;8.298;2023-03-31T15:36:27;5.68;;;0.85;;
23712;SDS011;12035;49.978;8.298;2023-03-31T15:41:29;3.67;;;0.90;;
23712;SDS011;12035;49.978;8.298;2023-03-31T15:51:46;4.30;;;0.98;;
23712;SDS011;12035;49.978;8.298;2023-03-31T15:56:46;3.83;;;0.93;;
23712;SDS011;12035;49.978;8.298;2023-03-31T16:01:45;3.03;;;0.98;;
23712;SDS011;12035;49.978;8.298;2023-03-31T16:06:44;3.70;;;0.93;;
23712;SDS011;12035;49.978;8.298;2023-03-31T16:11:47;7.22;;;1.08;;
23712;SDS011;12035;49.978;8.298;2023-03-31T16:16:48;4.22;;;1.17;;
23712;SDS011;12035;49.978;8.298;2023-03-31T16:26:50;5.13;;;1.15;;
23712;SDS011;12035;49.978;8.298;2023-03-31T16:31:48;6.60;;;1.20;;
23712;SDS011;12035;49.978;8.298;2023-03-31T16:36:45;7.47;;;1.45;;
23712;SDS011;12035;49.978;8.298;2023-03-31T16:41:43;5.95;;;1.38;;
23712;SDS011;12035;49.978;8.298;2023-03-31T16:46:42;5.20;;;1.23;;
23712;SDS011;12035;49.978;8.298;2023-03-31T16:51:39;5.43;;;1.45;;
23712;SDS011;12035;49.978;8.298;2023-03-31T16:56:36;4.97;;;1.20;;
23712;SDS011;12035;49.978;8.298;2023-03-31T17:01:34;5.75;;;1.20;;
23712;SDS011;12035;49.978;8.298;2023-03-31T17:06:33;5.35;;;1.10;;
23712;SDS011;12035;49.978;8.298;2023-03-31T17:11:30;5.45;;;1.25;;
23712;SDS011;12035;49.978;8.298;2023-03-31T17:16:27;6.22;;;1.30;;
23712;SDS011;12035;49.978;8.298;2023-03-31T17:21:24;6.30;;;1.30;;
23712;SDS011;12035;49.978;8.298;2023-03-31T17:26:23;7.05;;;1.25;;
23712;SDS011;12035;49.978;8.298;2023-03-31T17:31:21;7.05;;;1.20;;
23712;SDS011;12035;49.978;8.298;2023-03-31T17:36:18;5.13;;;1.40;;
23712;SDS011;12035;49.978;8.298;2023-03-31T17:41:16;5.80;;;1.10;;
23712;SDS011;12035;49.978;8.298;2023-03-31T17:46:14;5.70;;;1.20;;
23712;SDS011;12035;49.978;8.298;2023-03-31T17:51:13;5.13;;;1.23;;
23712;SDS011;12035;49.978;8.298;2023-03-31T17:56:12;5.50;;;1.33;;
23712;SDS011;12035;49.978;8.298;2023-03-31T18:01:11;8.32;;;1.40;;
23712;SDS011;12035;49.978;8.298;2023-03-31T18:06:11;6.63;;;1.08;;
23712;SDS011;12035;49.978;8.298;2023-03-31T18:11:09;4.07;;;1.10;;
23712;SDS011;12035;49.978;8.298;2023-03-31T18:16:08;8.45;;;1.15;;
23712;SDS011;12035;49.978;8.298;2023-03-31T18:21:07;4.18;;;0.90;;
23712;SDS011;12035;49.978;8.298;2023-03-31T18:26:09;1.65;;;0.50;;
23712;SDS011;12035;49.978;8.298;2023-03-31T18:31:08;6.68;;;1.05;;
23712;SDS011;12035;49.978;8.298;2023-03-31T18:36:07;3.90;;;0.98;;
23712;SDS011;12035;49.978;8.298;2023-03-31T18:41:11;4.10;;;0.80;;
23712;SDS011;12035;49.978;8.298;2023-03-31T18:46:09;3.33;;;1.00;;
23712;SDS011;12035;49.978;8.298;2023-03-31T18:51:06;5.13;;;0.88;;
23712;SDS011;12035;49.978;8.298;2023-03-31T18:56:05;3.80;;;0.88;;
23712;SDS011;12035;49.978;8.298;2023-03-31T19:01:02;4.28;;;1.30;;
23712;SDS011;12035;49.978;8.298;2023-03-31T19:06:00;4.70;;;1.00;;
23712;SDS011;12035;49.978;8.298;2023-03-31T19:11:02;3.60;;;0.90;;
23712;SDS011;12035;49.978;8.298;2023-03-31T19:16:03;3.20;;;0.82;;
23712;SDS011;12035;49.978;8.298;2023-03-31T19:21:01;4.55;;;1.33;;
23712;SDS011;12035;49.978;8.298;2023-03-31T19:25:59;4.55;;;0.90;;
23712;SDS011;12035;49.978;8.298;2023-03-31T19:30:58;5.30;;;0.95;;
23712;SDS011;12035;49.978;8.298;2023-03-31T19:36:00;5.43;;;1.40;;
23712;SDS011;12035;49.978;8.298;2023-03-31T19:40:57;3.50;;;0.82;;
23712;SDS011;12035;49.978;8.298;2023-03-31T19:45:55;3.90;;;1.10;;
23712;SDS011;12035;49.978;8.298;2023-03-31T19:50:54;7.22;;;1.48;;
23712;SDS011;12035;49.978;8.298;2023-03-31T19:55:55;3.42;;;0.82;;
23712;SDS011;12035;49.978;8.298;2023-03-31T20:00:54;4.10;;;0.80;;
23712;SDS011;12035;49.978;8.298;2023-03-31T20:06:00;2.92;;;0.60;;
23712;SDS011;12035;49.978;8.298;2023-03-31T20:11:02;5.25;;;0.98;;
23712;SDS011;12035;49.978;8.298;2023-03-31T20:16:04;1.95;;;0.60;;
23712;SDS011;12035;49.978;8.298;2023-03-31T20:21:04;6.18;;;1.05;;
23712;SDS011;12035;49.978;8.298;2023-03-31T20:26:04;3.72;;;0.90;;
23712;SDS011;12035;49.978;8.298;2023-03-31T20:31:08;4.22;;;0.90;;
23712;SDS011;12035;49.978;8.298;2023-03-31T20:36:09;3.95;;;0.88;;
23712;SDS011;12035;49.978;8.298;2023-03-31T20:41:09;2.67;;;0.80;;
23712;SDS011;12035;49.978;8.298;2023-03-31T20:46:08;3.50;;;0.70;;
23712;SDS011;12035;49.978;8.298;2023-03-31T20:51:06;3.65;;;1.00;;
23712;SDS011;12035;49.978;8.298;2023-03-31T20:56:08;9.15;;;0.93;;
23712;SDS011;12035;49.978;8.298;2023-03-31T21:01:08;5.93;;;1.05;;
23712;SDS011;12035;49.978;8.298;2023-03-31T21:06:07;3.42;;;0.80;;
23712;SDS011;12035;49.978;8.298;2023-03-31T21:11:07;2.72;;;0.80;;
23712;SDS011;12035;49.978;8.298;2023-03-31T21:16:05;4.32;;;0.90;;
23712;SDS011;12035;49.978;8.298;2023-03-31T21:21:04;5.22;;;0.82;;
23712;SDS011;12035;49.978;8.298;2023-03-31T21:26:07;2.97;;;0.70;;
23712;SDS011;12035;49.978;8.298;2023-03-31T21:31:08;3.22;;;0.77;;
23712;SDS011;12035;49.978;8.298;2023-03-31T21:36:08;6.10;;;0.93;;
23712;SDS011;12035;49.978;8.298;2023-03-31T21:41:08;2.58;;;1.02;;
23712;SDS011;12035;49.978;8.298;2023-03-31T21:46:08;6.82;;;1.30;;
23712;SDS011;12035;49.978;8.298;2023-03-31T21:51:10;2.47;;;0.73;;
23712;SDS011;12035;49.978;8.298;2023-03-31T21:56:08;7.32;;;1.13;;
23712;SDS011;12035;49.978;8.298;2023-03-31T22:01:05;5.60;;;1.00;;
23712;SDS011;12035;49.978;8.298;2023-03-31T22:06:05;5.18;;;1.02;;
23712;SDS011;12035;49.978;8.298;2023-03-31T22:11:04;4.85;;;1.08;;
23712;SDS011;12035;49.978;8.298;2023-03-31T22:16:09;7.60;;;1.33;;
23712;SDS011;12035;49.978;8.298;2023-03-31T22:21:15;5.80;;;1.13;;
23712;SDS011;12035;49.978;8.298;2023-03-31T22:26:15;3.75;;;1.00;;
23712;SDS011;12035;49.978;8.298;2023-03-31T22:31:13;6.50;;;1.00;;
23712;SDS011;12035;49.978;8.298;2023-03-31T22:36:11;6.50;;;1.10;;
23712;SDS011;12035;49.978;8.298;2023-03-31T22:41:10;4.68;;;0.95;;
23712;SDS011;12035;49.978;8.298;2023-03-31T22:46:08;3.97;;;0.77;;
23712;SDS011;12035;49.978;8.298;2023-03-31T22:51:05;4.57;;;0.88;;
23712;SDS011;12035;49.978;8.298;2023-03-31T22:56:05;6.93;;;1.23;;
23712;SDS011;12035;49.978;8.298;2023-03-31T23:01:11;3.22;;;0.98;;
23712;SDS011;12035;49.978;8.298;2023-03-31T23:06:13;5.13;;;1.00;;
23712;SDS011;12035;49.978;8.298;2023-03-31T23:11:16;4.32;;;0.90;;
23712;SDS011;12035;49.978;8.298;2023-03-31T23:16:15;5.78;;;1.00;;
23712;SDS011;12035;49.978;8.298;2023-03-31T23:21:16;2.97;;;0.90;;
23712;SDS011;12035;49.978;8.298;2023-03-31T23:26:18;6.07;;;0.93;;
23712;SDS011;12035;49.978;8.298;2023-03-31T23:31:17;3.22;;;1.05;;
23712;SDS011;12035;49.978;8.298;2023-03-31T23:36:16;3.28;;;0.82;;
23712;SDS011;12035;49.978;8.298;2023-03-31T23:41:15;4.93;;;0.95;;
23712;SDS011;12035;49.978;8.298;2023-03-31T23:46:18;7.25;;;1.00;;
23712;SDS011;12035;49.978;8.298;2023-03-31T23:51:15;6.35;;;1.30;;
23712;SDS011;12035;49.978;8.298;2023-03-31T23:56:14;4.55;;;1.05;;
